createdAt,value
2017-10-07T00:00:04.253Z,0
2017-10-07T00:01:04.251Z,0
2017-10-07T00:02:04.252Z,0
2017-10-07T00:03:04.233Z,0
2017-10-07T00:04:04.330Z,0
2017-10-07T00:05:04.257Z,0
2017-10-07T00:06:04.304Z,0
2017-10-07T00:07:04.259Z,0
2017-10-07T00:08:04.253Z,0
2017-10-07T00:09:04.265Z,0
2017-10-07T00:10:04.329Z,0
2017-10-07T00:11:04.301Z,0
2017-10-07T00:12:04.307Z,0
2017-10-07T00:13:04.309Z,0
2017-10-07T00:14:04.304Z,0
2017-10-07T00:15:04.263Z,0
2017-10-07T00:16:04.333Z,0
2017-10-07T00:17:04.315Z,0
2017-10-07T00:18:04.330Z,0
2017-10-07T00:19:04.258Z,0
2017-10-07T00:20:04.310Z,0
2017-10-07T00:21:04.264Z,0
2017-10-07T00:22:04.268Z,0
2017-10-07T00:23:04.227Z,0
2017-10-07T00:24:04.204Z,0
2017-10-07T00:25:04.266Z,0
2017-10-07T00:26:04.233Z,0
2017-10-07T00:27:04.237Z,0
2017-10-07T00:28:04.235Z,0
2017-10-07T00:29:04.208Z,0
2017-10-07T00:30:04.231Z,0
2017-10-07T00:31:04.333Z,0
2017-10-07T00:32:04.269Z,0
2017-10-07T00:33:04.271Z,0
2017-10-07T00:34:04.269Z,0
2017-10-07T00:35:04.219Z,0
2017-10-07T00:36:04.298Z,0
2017-10-07T00:37:04.275Z,0
2017-10-07T00:38:04.284Z,0
2017-10-07T00:39:04.321Z,0
2017-10-07T00:40:04.307Z,0
2017-10-07T00:41:04.213Z,0
2017-10-07T00:42:04.277Z,0
2017-10-07T00:43:04.239Z,0
2017-10-07T00:44:04.246Z,0
2017-10-07T00:45:04.242Z,0
2017-10-07T00:46:04.285Z,0
2017-10-07T00:47:04.279Z,0
2017-10-07T00:48:04.276Z,0
2017-10-07T00:49:04.218Z,0
2017-10-07T00:50:04.219Z,0
2017-10-07T00:51:04.261Z,0
2017-10-07T00:52:04.357Z,0
2017-10-07T00:53:04.286Z,0
2017-10-07T00:54:04.288Z,0
2017-10-07T00:55:04.284Z,0
2017-10-07T00:56:04.279Z,0
2017-10-07T00:57:04.241Z,0
2017-10-07T00:58:04.334Z,0
2017-10-07T00:59:04.285Z,0
2017-10-07T01:00:04.299Z,0
2017-10-07T01:01:04.368Z,0
2017-10-07T01:02:04.336Z,0
2017-10-07T01:03:04.286Z,0
2017-10-07T01:04:04.352Z,0
2017-10-07T01:05:04.290Z,0
2017-10-07T01:06:04.370Z,0
2017-10-07T01:07:04.337Z,0
2017-10-07T01:08:04.295Z,0
2017-10-07T01:09:04.339Z,0
2017-10-07T01:10:04.293Z,0
2017-10-07T01:11:04.292Z,0
2017-10-07T01:12:04.294Z,0
2017-10-07T01:13:04.230Z,0
2017-10-07T01:14:04.263Z,0
2017-10-07T01:15:04.234Z,0
2017-10-07T01:16:04.256Z,0
2017-10-07T01:17:04.234Z,0
2017-10-07T01:18:04.292Z,0
2017-10-07T01:19:04.239Z,0
2017-10-07T01:20:04.266Z,0
2017-10-07T01:21:04.298Z,0
2017-10-07T01:22:04.348Z,0
2017-10-07T01:23:04.316Z,0
2017-10-07T01:24:04.369Z,0
2017-10-07T01:25:04.300Z,0
2017-10-07T01:26:04.300Z,0
2017-10-07T01:27:04.308Z,0
2017-10-07T01:28:04.347Z,0
2017-10-07T01:29:04.345Z,0
2017-10-07T01:30:04.312Z,0
2017-10-07T01:31:04.335Z,0
2017-10-07T01:32:04.377Z,0
2017-10-07T01:33:04.354Z,0
2017-10-07T01:34:04.312Z,0
2017-10-07T01:35:04.353Z,0
2017-10-07T01:36:04.323Z,0
2017-10-07T01:37:04.306Z,0
2017-10-07T01:38:04.323Z,0
2017-10-07T01:39:04.284Z,0
2017-10-07T01:40:04.311Z,0
2017-10-07T01:41:04.329Z,0
2017-10-07T01:42:04.250Z,0
2017-10-07T01:43:04.244Z,0
2017-10-07T01:44:04.278Z,0
2017-10-07T01:45:04.249Z,0
2017-10-07T01:46:04.310Z,0
2017-10-07T01:47:04.250Z,0
2017-10-07T01:48:04.313Z,0
2017-10-07T01:49:04.310Z,0
2017-10-07T01:50:04.315Z,0
2017-10-07T01:51:04.379Z,0
2017-10-07T01:52:04.323Z,0
2017-10-07T01:53:04.284Z,0
2017-10-07T01:54:04.335Z,0
2017-10-07T01:55:04.320Z,0
2017-10-07T01:56:04.314Z,0
2017-10-07T01:57:04.369Z,0
2017-10-07T01:58:04.368Z,0
2017-10-07T01:59:04.323Z,0
2017-10-07T02:00:04.310Z,0
2017-10-07T02:01:04.374Z,0
2017-10-07T02:02:04.391Z,0
2017-10-07T02:03:04.308Z,0
2017-10-07T02:04:04.307Z,0
2017-10-07T02:05:04.325Z,0
2017-10-07T02:06:04.328Z,0
2017-10-07T02:07:04.373Z,0
2017-10-07T02:08:04.330Z,0
2017-10-07T02:09:04.380Z,0
2017-10-07T02:10:04.376Z,0
2017-10-07T02:11:04.326Z,0
2017-10-07T02:12:04.296Z,0
2017-10-07T02:13:04.328Z,0
2017-10-07T02:14:04.373Z,0
2017-10-07T02:15:04.363Z,0
2017-10-07T02:16:04.328Z,0
2017-10-07T02:17:04.341Z,0
2017-10-07T02:18:04.302Z,0
2017-10-07T02:19:04.328Z,0
2017-10-07T02:20:04.340Z,0
2017-10-07T02:21:04.237Z,0
2017-10-07T02:22:04.236Z,0
2017-10-07T02:23:04.240Z,0
2017-10-07T02:24:04.247Z,0
2017-10-07T02:25:04.241Z,0
2017-10-07T02:26:04.240Z,0
2017-10-07T02:27:04.239Z,0
2017-10-07T02:28:04.241Z,0
2017-10-07T02:29:04.244Z,0
2017-10-07T02:30:04.242Z,0
2017-10-07T02:31:04.383Z,0
2017-10-07T02:32:04.294Z,0
2017-10-07T02:33:04.340Z,0
2017-10-07T02:34:04.325Z,0
2017-10-07T02:35:04.413Z,0
2017-10-07T02:36:04.323Z,0
2017-10-07T02:37:04.390Z,0
2017-10-07T02:38:04.300Z,0
2017-10-07T02:39:04.388Z,0
2017-10-07T02:40:04.301Z,0
2017-10-07T02:41:04.347Z,0
2017-10-07T02:42:04.346Z,0
2017-10-07T02:43:04.302Z,0
2017-10-07T02:44:04.347Z,0
2017-10-07T02:45:04.346Z,0
2017-10-07T02:46:04.396Z,0
2017-10-07T02:47:04.401Z,0
2017-10-07T02:48:04.305Z,0
2017-10-07T02:49:04.403Z,0
2017-10-07T02:50:04.364Z,0
2017-10-07T02:51:04.357Z,0
2017-10-07T02:52:04.352Z,0
2017-10-07T02:53:04.354Z,0
2017-10-07T02:54:04.399Z,0
2017-10-07T02:55:04.350Z,0
2017-10-07T02:56:04.352Z,0
2017-10-07T02:57:04.405Z,0
2017-10-07T02:58:04.359Z,0
2017-10-07T02:59:04.407Z,0
2017-10-07T03:00:04.401Z,0
2017-10-07T03:01:04.328Z,0
2017-10-07T03:02:04.368Z,0
2017-10-07T03:03:04.374Z,0
2017-10-07T03:04:04.357Z,0
2017-10-07T03:05:04.355Z,0
2017-10-07T03:06:04.306Z,0
2017-10-07T03:07:04.339Z,0
2017-10-07T03:08:04.356Z,0
2017-10-07T03:09:04.306Z,0
2017-10-07T03:10:04.308Z,0
2017-10-07T03:11:04.364Z,0
2017-10-07T03:12:04.360Z,0
2017-10-07T03:13:04.415Z,0
2017-10-07T03:14:04.332Z,0
2017-10-07T03:15:04.441Z,0
2017-10-07T03:16:04.363Z,0
2017-10-07T03:17:04.349Z,0
2017-10-07T03:18:04.344Z,0
2017-10-07T03:19:04.318Z,0
2017-10-07T03:20:04.401Z,0
2017-10-07T03:21:04.382Z,0
2017-10-07T03:22:04.313Z,0
2017-10-07T03:23:04.310Z,0
2017-10-07T03:24:04.376Z,0
2017-10-07T03:25:04.404Z,0
2017-10-07T03:26:04.378Z,0
2017-10-07T03:27:04.338Z,0
2017-10-07T03:28:04.366Z,0
2017-10-07T03:29:04.368Z,0
2017-10-07T03:30:04.328Z,0
2017-10-07T03:31:04.404Z,0
2017-10-07T03:32:04.372Z,0
2017-10-07T03:33:04.450Z,0
2017-10-07T03:34:04.327Z,0
2017-10-07T03:35:04.421Z,0
2017-10-07T03:36:04.382Z,0
2017-10-07T03:37:04.432Z,0
2017-10-07T03:38:04.420Z,0
2017-10-07T03:39:04.386Z,0
2017-10-07T03:40:04.379Z,0
2017-10-07T03:41:04.382Z,0
2017-10-07T03:42:04.382Z,0
2017-10-07T03:43:04.351Z,0
2017-10-07T03:44:04.351Z,0
2017-10-07T03:45:04.350Z,0
2017-10-07T03:46:04.320Z,0
2017-10-07T03:47:04.352Z,0
2017-10-07T03:48:04.390Z,0
2017-10-07T03:49:04.357Z,0
2017-10-07T03:50:04.351Z,0
2017-10-07T03:51:04.391Z,0
2017-10-07T03:52:04.353Z,0
2017-10-07T03:53:04.389Z,0
2017-10-07T03:54:04.435Z,0
2017-10-07T03:55:04.395Z,0
2017-10-07T03:56:04.348Z,0
2017-10-07T03:57:04.390Z,0
2017-10-07T03:58:04.441Z,0
2017-10-07T03:59:04.392Z,0
2017-10-07T04:00:04.444Z,0
2017-10-07T04:01:04.436Z,0
2017-10-07T04:02:04.429Z,0
2017-10-07T04:03:04.403Z,0
2017-10-07T04:04:04.407Z,0
2017-10-07T04:05:04.387Z,0
2017-10-07T04:06:04.367Z,0
2017-10-07T04:07:04.380Z,0
2017-10-07T04:08:04.426Z,0
2017-10-07T04:09:04.338Z,0
2017-10-07T04:10:04.443Z,0
2017-10-07T04:11:04.447Z,0
2017-10-07T04:12:04.401Z,0
2017-10-07T04:13:04.399Z,0
2017-10-07T04:14:04.405Z,0
2017-10-07T04:15:04.446Z,0
2017-10-07T04:16:04.400Z,0
2017-10-07T04:17:04.376Z,0
2017-10-07T04:18:04.405Z,0
2017-10-07T04:19:04.402Z,0
2017-10-07T04:20:04.352Z,0
2017-10-07T04:21:04.371Z,0
2017-10-07T04:22:04.344Z,0
2017-10-07T04:23:04.417Z,0
2017-10-07T04:24:04.383Z,0
2017-10-07T04:25:04.347Z,0
2017-10-07T04:26:04.355Z,0
2017-10-07T04:27:04.384Z,0
2017-10-07T04:28:04.443Z,0
2017-10-07T04:29:04.351Z,0
2017-10-07T04:30:04.389Z,0
2017-10-07T04:31:04.425Z,0
2017-10-07T04:32:04.369Z,0
2017-10-07T04:33:04.409Z,0
2017-10-07T04:34:04.410Z,0
2017-10-07T04:35:04.461Z,0
2017-10-07T04:36:04.416Z,0
2017-10-07T04:37:04.414Z,0
2017-10-07T04:38:04.464Z,0
2017-10-07T04:39:04.473Z,0
2017-10-07T04:40:04.412Z,0
2017-10-07T04:41:04.455Z,0
2017-10-07T04:42:04.390Z,0
2017-10-07T04:43:04.455Z,0
2017-10-07T04:44:04.427Z,0
2017-10-07T04:45:04.384Z,0
2017-10-07T04:46:04.473Z,0
2017-10-07T04:47:04.416Z,0
2017-10-07T04:48:04.415Z,0
2017-10-07T04:49:04.436Z,0
2017-10-07T04:50:04.415Z,0
2017-10-07T04:51:04.427Z,0
2017-10-07T04:52:04.478Z,0
2017-10-07T04:53:04.424Z,0
2017-10-07T04:54:04.473Z,0
2017-10-07T04:55:04.492Z,0
2017-10-07T04:56:04.383Z,0
2017-10-07T04:57:04.475Z,0
2017-10-07T04:58:04.475Z,0
2017-10-07T04:59:04.475Z,0
2017-10-07T05:00:04.430Z,0
2017-10-07T05:01:04.477Z,0
2017-10-07T05:02:04.474Z,0
2017-10-07T05:03:04.384Z,0
2017-10-07T05:04:04.429Z,0
2017-10-07T05:05:04.477Z,0
2017-10-07T05:06:04.604Z,0
2017-10-07T05:07:04.430Z,0
2017-10-07T05:08:04.477Z,0
2017-10-07T05:09:04.495Z,0
2017-10-07T05:10:04.445Z,0
2017-10-07T05:11:04.486Z,0
2017-10-07T05:12:04.452Z,0
2017-10-07T05:13:04.404Z,0
2017-10-07T05:14:04.433Z,0
2017-10-07T05:15:04.484Z,0
2017-10-07T05:16:04.496Z,0
2017-10-07T05:17:04.486Z,0
2017-10-07T05:18:04.442Z,0
2017-10-07T05:19:04.437Z,0
2017-10-07T05:20:04.454Z,0
2017-10-07T05:21:04.485Z,0
2017-10-07T05:22:04.396Z,0
2017-10-07T05:23:04.440Z,0
2017-10-07T05:24:04.493Z,0
2017-10-07T05:25:04.519Z,0
2017-10-07T05:26:04.444Z,0
2017-10-07T05:27:04.582Z,0
2017-10-07T05:28:04.450Z,0
2017-10-07T05:29:04.446Z,0
2017-10-07T05:30:04.490Z,0
2017-10-07T05:31:04.447Z,0
2017-10-07T05:32:04.500Z,0
2017-10-07T05:33:04.450Z,0
2017-10-07T05:34:04.516Z,0
2017-10-07T05:35:04.499Z,0
2017-10-07T05:36:04.447Z,0
2017-10-07T05:37:04.499Z,0
2017-10-07T05:38:04.538Z,0
2017-10-07T05:39:04.469Z,0
2017-10-07T05:40:04.501Z,0
2017-10-07T05:41:04.389Z,0
2017-10-07T05:42:04.389Z,0
2017-10-07T05:43:04.451Z,0
2017-10-07T05:44:04.461Z,0
2017-10-07T05:45:04.424Z,0
2017-10-07T05:46:04.430Z,0
2017-10-07T05:47:04.462Z,0
2017-10-07T05:48:04.446Z,0
2017-10-07T05:49:04.419Z,0
2017-10-07T05:50:04.478Z,0
2017-10-07T05:51:04.400Z,0
2017-10-07T05:52:04.491Z,0
2017-10-07T05:53:04.429Z,0
2017-10-07T05:54:04.497Z,0
2017-10-07T05:55:04.427Z,0
2017-10-07T05:56:04.452Z,0
2017-10-07T05:57:04.405Z,0
2017-10-07T05:58:04.425Z,0
2017-10-07T05:59:04.410Z,0
2017-10-07T06:00:04.433Z,0
2017-10-07T06:01:04.461Z,0
2017-10-07T06:02:04.428Z,0
2017-10-07T06:03:04.401Z,0
2017-10-07T06:04:04.425Z,0
2017-10-07T06:05:04.462Z,0
2017-10-07T06:06:04.427Z,0
2017-10-07T06:07:04.428Z,0
2017-10-07T06:08:04.434Z,0
2017-10-07T06:09:04.428Z,0
2017-10-07T06:10:04.432Z,0
2017-10-07T06:11:04.467Z,0
2017-10-07T06:12:04.438Z,0
2017-10-07T06:13:04.479Z,13
2017-10-07T06:14:04.417Z,15
2017-10-07T06:15:04.450Z,17
2017-10-07T06:16:04.522Z,20
2017-10-07T06:17:04.418Z,24
2017-10-07T06:18:04.524Z,26
2017-10-07T06:19:04.417Z,28
2017-10-07T06:20:04.522Z,31
2017-10-07T06:21:04.484Z,36
2017-10-07T06:22:04.525Z,42
2017-10-07T06:23:04.550Z,47
2017-10-07T06:24:04.423Z,53
2017-10-07T06:25:04.459Z,56
2017-10-07T06:26:04.527Z,59
2017-10-07T06:27:04.488Z,60
2017-10-07T06:28:04.457Z,61
2017-10-07T06:29:04.549Z,60
2017-10-07T06:30:04.461Z,56
2017-10-07T06:31:04.528Z,55
2017-10-07T06:32:04.529Z,57
2017-10-07T06:33:04.475Z,60
2017-10-07T06:34:04.479Z,63
2017-10-07T06:35:04.448Z,65
2017-10-07T06:36:04.483Z,68
2017-10-07T06:37:04.508Z,70
2017-10-07T06:38:04.538Z,71
2017-10-07T06:39:04.486Z,72
2017-10-07T06:40:04.538Z,74
2017-10-07T06:41:04.485Z,73
2017-10-07T06:42:04.462Z,79
2017-10-07T06:43:04.451Z,79
2017-10-07T06:44:04.429Z,75
2017-10-07T06:45:04.468Z,74
2017-10-07T06:46:04.436Z,72
2017-10-07T06:47:04.503Z,73
2017-10-07T06:48:04.501Z,69
2017-10-07T06:49:04.483Z,66
2017-10-07T06:50:04.500Z,65
2017-10-07T06:51:04.518Z,68
2017-10-07T06:52:04.472Z,71
2017-10-07T06:53:04.534Z,73
2017-10-07T06:54:04.520Z,75
2017-10-07T06:55:04.460Z,75
2017-10-07T06:56:04.491Z,76
2017-10-07T06:57:04.510Z,79
2017-10-07T06:58:04.537Z,83
2017-10-07T06:59:04.456Z,89
2017-10-07T07:00:04.439Z,90
2017-10-07T07:01:04.509Z,90
2017-10-07T07:02:04.553Z,89
2017-10-07T07:03:04.501Z,89
2017-10-07T07:04:04.509Z,93
2017-10-07T07:05:04.506Z,96
2017-10-07T07:06:04.526Z,100
2017-10-07T07:07:04.503Z,102
2017-10-07T07:08:04.549Z,101
2017-10-07T07:09:04.485Z,99
2017-10-07T07:10:04.551Z,96
2017-10-07T07:11:04.482Z,97
2017-10-07T07:12:04.557Z,100
2017-10-07T07:13:04.556Z,107
2017-10-07T07:14:04.514Z,108
2017-10-07T07:15:04.509Z,109
2017-10-07T07:16:04.548Z,108
2017-10-07T07:17:04.531Z,109
2017-10-07T07:18:04.557Z,112
2017-10-07T07:19:04.557Z,118
2017-10-07T07:20:04.564Z,111
2017-10-07T07:21:04.446Z,114
2017-10-07T07:22:04.507Z,114
2017-10-07T07:23:04.445Z,111
2017-10-07T07:24:04.451Z,112
2017-10-07T07:25:04.505Z,116
2017-10-07T07:26:04.450Z,117
2017-10-07T07:27:04.480Z,118
2017-10-07T07:28:04.475Z,118
2017-10-07T07:29:04.477Z,117
2017-10-07T07:30:04.511Z,124
2017-10-07T07:31:04.562Z,124
2017-10-07T07:32:04.581Z,130
2017-10-07T07:33:04.566Z,130
2017-10-07T07:34:04.514Z,153
2017-10-07T07:35:04.467Z,167
2017-10-07T07:36:04.675Z,175
2017-10-07T07:37:04.500Z,180
2017-10-07T07:38:04.519Z,173
2017-10-07T07:39:04.564Z,171
2017-10-07T07:40:04.526Z,164
2017-10-07T07:41:04.553Z,167
2017-10-07T07:42:04.523Z,163
2017-10-07T07:43:04.462Z,155
2017-10-07T07:44:04.499Z,140
2017-10-07T07:45:04.469Z,147
2017-10-07T07:46:04.564Z,147
2017-10-07T07:47:04.464Z,156
2017-10-07T07:48:04.486Z,157
2017-10-07T07:49:04.489Z,146
2017-10-07T07:50:04.532Z,137
2017-10-07T07:51:04.553Z,123
2017-10-07T07:52:04.455Z,113
2017-10-07T07:53:04.461Z,105
2017-10-07T07:54:04.492Z,97
2017-10-07T07:55:04.487Z,97
2017-10-07T07:56:04.488Z,111
2017-10-07T07:57:04.494Z,119
2017-10-07T07:58:04.491Z,123
2017-10-07T07:59:04.467Z,121
2017-10-07T08:00:04.528Z,117
2017-10-07T08:01:04.539Z,120
2017-10-07T08:02:04.509Z,122
2017-10-07T08:03:04.548Z,111
2017-10-07T08:04:04.498Z,103
2017-10-07T08:05:04.514Z,97
2017-10-07T08:06:04.562Z,93
2017-10-07T08:07:04.582Z,96
2017-10-07T08:08:04.580Z,97
2017-10-07T08:09:04.585Z,101
2017-10-07T08:10:04.521Z,107
2017-10-07T08:11:04.570Z,117
2017-10-07T08:12:04.580Z,116
2017-10-07T08:13:04.518Z,143
2017-10-07T08:14:04.545Z,152
2017-10-07T08:15:04.534Z,154
2017-10-07T08:16:04.574Z,153
2017-10-07T08:17:04.512Z,152
2017-10-07T08:18:04.484Z,151
2017-10-07T08:19:04.555Z,149
2017-10-07T08:20:04.487Z,151
2017-10-07T08:21:04.491Z,158
2017-10-07T08:22:04.556Z,164
2017-10-07T08:23:04.486Z,162
2017-10-07T08:24:04.550Z,162
2017-10-07T08:25:04.602Z,158
2017-10-07T08:26:04.488Z,167
2017-10-07T08:27:04.586Z,180
2017-10-07T08:28:04.552Z,180
2017-10-07T08:29:04.591Z,181
2017-10-07T08:30:04.492Z,171
2017-10-07T08:31:04.589Z,167
2017-10-07T08:32:04.529Z,169
2017-10-07T08:33:04.497Z,169
2017-10-07T08:34:04.601Z,171
2017-10-07T08:35:04.519Z,171
2017-10-07T08:36:04.579Z,173
2017-10-07T08:37:04.554Z,180
2017-10-07T08:38:04.602Z,185
2017-10-07T08:39:04.503Z,193
2017-10-07T08:40:04.538Z,201
2017-10-07T08:41:04.520Z,209
2017-10-07T08:42:04.557Z,213
2017-10-07T08:43:04.500Z,229
2017-10-07T08:44:04.515Z,241
2017-10-07T08:45:04.604Z,251
2017-10-07T08:46:04.559Z,251
2017-10-07T08:47:04.503Z,237
2017-10-07T08:48:04.578Z,218
2017-10-07T08:49:04.557Z,203
2017-10-07T08:50:04.557Z,190
2017-10-07T08:51:04.558Z,182
2017-10-07T08:52:04.543Z,182
2017-10-07T08:53:04.564Z,189
2017-10-07T08:54:04.515Z,199
2017-10-07T08:55:04.616Z,204
2017-10-07T08:56:04.547Z,204
2017-10-07T08:57:04.613Z,203
2017-10-07T08:58:04.611Z,198
2017-10-07T08:59:04.570Z,194
2017-10-07T09:00:04.565Z,190
2017-10-07T09:01:04.639Z,186
2017-10-07T09:02:04.548Z,190
2017-10-07T09:03:04.623Z,194
2017-10-07T09:04:04.616Z,200
2017-10-07T09:05:04.571Z,203
2017-10-07T09:06:04.574Z,206
2017-10-07T09:07:04.556Z,208
2017-10-07T09:08:04.581Z,209
2017-10-07T09:09:04.536Z,213
2017-10-07T09:10:04.625Z,216
2017-10-07T09:11:04.591Z,220
2017-10-07T09:12:04.581Z,222
2017-10-07T09:13:04.538Z,224
2017-10-07T09:14:04.498Z,232
2017-10-07T09:15:04.540Z,235
2017-10-07T09:16:04.514Z,236
2017-10-07T09:17:04.538Z,236
2017-10-07T09:18:04.484Z,232
2017-10-07T09:19:04.543Z,227
2017-10-07T09:20:04.516Z,224
2017-10-07T09:21:04.474Z,221
2017-10-07T09:22:04.584Z,220
2017-10-07T09:23:04.578Z,220
2017-10-07T09:24:04.525Z,225
2017-10-07T09:25:04.566Z,222
2017-10-07T09:26:04.651Z,215
2017-10-07T09:27:04.567Z,199
2017-10-07T09:28:04.585Z,201
2017-10-07T09:29:04.630Z,212
2017-10-07T09:30:04.624Z,211
2017-10-07T09:31:04.534Z,222
2017-10-07T09:32:04.537Z,237
2017-10-07T09:33:04.568Z,241
2017-10-07T09:34:04.553Z,257
2017-10-07T09:35:04.636Z,280
2017-10-07T09:36:04.540Z,291
2017-10-07T09:37:04.532Z,295
2017-10-07T09:38:04.619Z,286
2017-10-07T09:39:04.566Z,265
2017-10-07T09:40:04.537Z,219
2017-10-07T09:41:04.638Z,176
2017-10-07T09:42:04.527Z,176
2017-10-07T09:43:04.560Z,193
2017-10-07T09:44:04.590Z,205
2017-10-07T09:45:04.532Z,197
2017-10-07T09:46:04.590Z,193
2017-10-07T09:47:04.557Z,185
2017-10-07T09:48:04.559Z,213
2017-10-07T09:49:04.598Z,227
2017-10-07T09:50:04.561Z,197
2017-10-07T09:51:04.591Z,169
2017-10-07T09:52:04.548Z,151
2017-10-07T09:53:04.596Z,137
2017-10-07T09:54:04.652Z,140
2017-10-07T09:55:04.549Z,139
2017-10-07T09:56:04.649Z,155
2017-10-07T09:57:04.648Z,176
2017-10-07T09:58:04.581Z,164
2017-10-07T09:59:04.583Z,140
2017-10-07T10:00:04.651Z,138
2017-10-07T10:01:04.583Z,139
2017-10-07T10:02:04.615Z,149
2017-10-07T10:03:04.681Z,146
2017-10-07T10:04:04.604Z,156
2017-10-07T10:05:04.653Z,167
2017-10-07T10:06:04.653Z,153
2017-10-07T10:07:04.659Z,153
2017-10-07T10:08:04.611Z,164
2017-10-07T10:09:04.617Z,179
2017-10-07T10:10:04.555Z,213
2017-10-07T10:11:04.608Z,219
2017-10-07T10:12:04.635Z,206
2017-10-07T10:13:04.592Z,223
2017-10-07T10:14:04.618Z,235
2017-10-07T10:15:04.670Z,190
2017-10-07T10:16:04.612Z,200
2017-10-07T10:17:04.619Z,202
2017-10-07T10:18:04.665Z,210
2017-10-07T10:19:04.646Z,246
2017-10-07T10:20:04.643Z,236
2017-10-07T10:21:04.636Z,272
2017-10-07T10:22:04.631Z,278
2017-10-07T10:23:04.624Z,275
2017-10-07T10:24:04.557Z,278
2017-10-07T10:25:04.656Z,304
2017-10-07T10:26:04.598Z,300
2017-10-07T10:27:04.559Z,367
2017-10-07T10:28:04.636Z,387
2017-10-07T10:29:04.561Z,346
2017-10-07T10:30:04.620Z,280
2017-10-07T10:31:04.597Z,225
2017-10-07T10:32:04.585Z,201
2017-10-07T10:33:04.591Z,176
2017-10-07T10:34:04.626Z,221
2017-10-07T10:35:04.625Z,232
2017-10-07T10:36:04.661Z,205
2017-10-07T10:37:04.623Z,183
2017-10-07T10:38:04.658Z,184
2017-10-07T10:39:04.575Z,185
2017-10-07T10:40:04.743Z,202
2017-10-07T10:41:04.627Z,215
2017-10-07T10:42:04.585Z,229
2017-10-07T10:43:04.548Z,212
2017-10-07T10:44:04.587Z,201
2017-10-07T10:45:04.578Z,194
2017-10-07T10:46:04.603Z,165
2017-10-07T10:47:04.637Z,138
2017-10-07T10:48:04.602Z,136
2017-10-07T10:49:04.638Z,128
2017-10-07T10:50:04.595Z,120
2017-10-07T10:51:04.597Z,106
2017-10-07T10:52:04.635Z,97
2017-10-07T10:53:04.638Z,95
2017-10-07T10:54:04.606Z,121
2017-10-07T10:55:04.646Z,126
2017-10-07T10:56:04.599Z,112
2017-10-07T10:57:04.581Z,153
2017-10-07T10:58:04.618Z,174
2017-10-07T10:59:04.617Z,163
2017-10-07T11:00:04.645Z,147
2017-10-07T11:01:04.617Z,146
2017-10-07T11:02:04.604Z,144
2017-10-07T11:03:04.610Z,150
2017-10-07T11:04:04.598Z,167
2017-10-07T11:05:04.599Z,170
2017-10-07T11:06:04.579Z,167
2017-10-07T11:07:04.577Z,169
2017-10-07T11:08:04.608Z,179
2017-10-07T11:09:04.641Z,153
2017-10-07T11:10:04.607Z,109
2017-10-07T11:11:04.605Z,86
2017-10-07T11:12:04.645Z,76
2017-10-07T11:13:04.647Z,63
2017-10-07T11:14:04.650Z,60
2017-10-07T11:15:04.648Z,82
2017-10-07T11:16:04.671Z,79
2017-10-07T11:17:04.698Z,76
2017-10-07T11:18:04.678Z,81
2017-10-07T11:19:04.676Z,79
2017-10-07T11:20:04.632Z,79
2017-10-07T11:21:04.780Z,78
2017-10-07T11:22:04.620Z,69
2017-10-07T11:23:04.614Z,66
2017-10-07T11:24:04.585Z,81
2017-10-07T11:25:04.646Z,76
2017-10-07T11:26:04.588Z,79
2017-10-07T11:27:04.618Z,70
2017-10-07T11:28:04.617Z,52
2017-10-07T11:29:04.650Z,46
2017-10-07T11:30:04.671Z,58
2017-10-07T11:31:04.590Z,59
2017-10-07T11:32:04.601Z,74
2017-10-07T11:33:04.643Z,83
2017-10-07T11:34:04.669Z,71
2017-10-07T11:35:04.637Z,76
2017-10-07T11:36:04.670Z,104
2017-10-07T11:37:04.622Z,103
2017-10-07T11:38:04.643Z,92
2017-10-07T11:39:04.665Z,96
2017-10-07T11:40:04.627Z,95
2017-10-07T11:41:04.693Z,83
2017-10-07T11:42:04.628Z,78
2017-10-07T11:43:04.671Z,103
2017-10-07T11:44:04.643Z,107
2017-10-07T11:45:04.693Z,111
2017-10-07T11:46:04.678Z,109
2017-10-07T11:47:04.714Z,115
2017-10-07T11:48:04.664Z,120
2017-10-07T11:49:04.691Z,126
2017-10-07T11:50:04.741Z,130
2017-10-07T11:51:04.716Z,120
2017-10-07T11:52:04.721Z,114
2017-10-07T11:53:04.653Z,95
2017-10-07T11:54:04.721Z,80
2017-10-07T11:55:04.718Z,82
2017-10-07T11:56:04.669Z,87
2017-10-07T11:57:04.672Z,83
2017-10-07T11:58:04.661Z,90
2017-10-07T11:59:04.672Z,107
2017-10-07T12:00:04.703Z,127
2017-10-07T12:01:04.623Z,158
2017-10-07T12:02:04.669Z,165
2017-10-07T12:03:04.645Z,145
2017-10-07T12:04:04.653Z,152
2017-10-07T12:05:04.715Z,175
2017-10-07T12:06:04.673Z,173
2017-10-07T12:07:04.717Z,153
2017-10-07T12:08:04.658Z,167
2017-10-07T12:09:04.637Z,171
2017-10-07T12:10:04.708Z,133
2017-10-07T12:11:04.656Z,103
2017-10-07T12:12:04.712Z,99
2017-10-07T12:13:04.633Z,106
2017-10-07T12:14:04.734Z,109
2017-10-07T12:15:04.681Z,107
2017-10-07T12:16:04.666Z,93
2017-10-07T12:17:04.725Z,83
2017-10-07T12:18:04.672Z,91
2017-10-07T12:19:04.690Z,67
2017-10-07T12:20:04.697Z,57
2017-10-07T12:21:04.663Z,48
2017-10-07T12:22:04.651Z,48
2017-10-07T12:23:04.807Z,49
2017-10-07T12:24:04.640Z,57
2017-10-07T12:25:04.625Z,64
2017-10-07T12:26:04.628Z,63
2017-10-07T12:27:04.626Z,62
2017-10-07T12:28:04.604Z,60
2017-10-07T12:29:04.640Z,59
2017-10-07T12:30:04.655Z,60
2017-10-07T12:31:04.647Z,56
2017-10-07T12:32:04.644Z,56
2017-10-07T12:33:04.636Z,47
2017-10-07T12:34:04.678Z,44
2017-10-07T12:35:04.631Z,53
2017-10-07T12:36:04.629Z,58
2017-10-07T12:37:04.649Z,67
2017-10-07T12:38:04.648Z,74
2017-10-07T12:39:04.618Z,70
2017-10-07T12:40:04.654Z,63
2017-10-07T12:41:04.656Z,64
2017-10-07T12:42:04.676Z,61
2017-10-07T12:43:04.751Z,64
2017-10-07T12:44:04.705Z,68
2017-10-07T12:45:04.749Z,62
2017-10-07T12:46:04.686Z,65
2017-10-07T12:47:04.743Z,62
2017-10-07T12:48:04.751Z,59
2017-10-07T12:49:04.648Z,55
2017-10-07T12:50:04.705Z,56
2017-10-07T12:51:04.652Z,55
2017-10-07T12:52:04.665Z,56
2017-10-07T12:53:04.665Z,50
2017-10-07T12:54:04.677Z,47
2017-10-07T12:55:04.656Z,44
2017-10-07T12:56:04.743Z,41
2017-10-07T12:57:04.751Z,42
2017-10-07T12:58:04.668Z,42
2017-10-07T12:59:04.737Z,44
2017-10-07T13:00:04.679Z,54
2017-10-07T13:01:04.723Z,64
2017-10-07T13:02:04.744Z,69
2017-10-07T13:03:04.716Z,63
2017-10-07T13:04:04.692Z,60
2017-10-07T13:05:04.663Z,68
2017-10-07T13:06:04.684Z,72
2017-10-07T13:07:04.658Z,72
2017-10-07T13:08:04.723Z,66
2017-10-07T13:09:04.721Z,50
2017-10-07T13:10:04.694Z,37
2017-10-07T13:11:04.747Z,35
2017-10-07T13:12:04.766Z,32
2017-10-07T13:13:04.720Z,25
2017-10-07T13:14:04.695Z,26
2017-10-07T13:15:04.762Z,35
2017-10-07T13:16:04.729Z,48
2017-10-07T13:17:04.698Z,61
2017-10-07T13:18:04.701Z,69
2017-10-07T13:19:04.730Z,72
2017-10-07T13:20:04.768Z,61
2017-10-07T13:21:04.767Z,50
2017-10-07T13:22:04.656Z,44
2017-10-07T13:23:04.715Z,42
2017-10-07T13:24:04.724Z,36
2017-10-07T13:25:04.720Z,33
2017-10-07T13:26:04.686Z,33
2017-10-07T13:27:04.659Z,32
2017-10-07T13:28:04.659Z,30
2017-10-07T13:29:04.694Z,35
2017-10-07T13:30:04.720Z,38
2017-10-07T13:31:04.662Z,35
2017-10-07T13:32:04.776Z,37
2017-10-07T13:33:04.772Z,32
2017-10-07T13:34:04.782Z,29
2017-10-07T13:35:04.781Z,28
2017-10-07T13:36:04.745Z,28
2017-10-07T13:37:04.731Z,25
2017-10-07T13:38:04.776Z,26
2017-10-07T13:39:04.760Z,25
2017-10-07T13:40:04.759Z,21
2017-10-07T13:41:04.779Z,18
2017-10-07T13:42:04.766Z,15
2017-10-07T13:43:04.704Z,14
2017-10-07T13:44:04.699Z,17
2017-10-07T13:45:04.707Z,19
2017-10-07T13:46:04.709Z,20
2017-10-07T13:47:04.713Z,21
2017-10-07T13:48:04.702Z,23
2017-10-07T13:49:04.713Z,22
2017-10-07T13:50:04.742Z,23
2017-10-07T13:51:04.685Z,22
2017-10-07T13:52:04.718Z,30
2017-10-07T13:53:04.687Z,30
2017-10-07T13:54:04.699Z,24
2017-10-07T13:55:04.712Z,19
2017-10-07T13:56:04.710Z,15
2017-10-07T13:57:04.749Z,12
2017-10-07T13:58:04.722Z,11
2017-10-07T13:59:04.736Z,14
2017-10-07T14:00:04.739Z,13
2017-10-07T14:01:04.712Z,11
2017-10-07T14:02:04.754Z,13
2017-10-07T14:03:04.702Z,14
2017-10-07T14:04:04.755Z,15
2017-10-07T14:05:04.774Z,14
2017-10-07T14:06:04.749Z,14
2017-10-07T14:07:04.790Z,14
2017-10-07T14:08:04.790Z,15
2017-10-07T14:09:04.732Z,15
2017-10-07T14:10:04.799Z,12
2017-10-07T14:11:04.795Z,11
2017-10-07T14:12:04.712Z,13
2017-10-07T14:13:04.662Z,14
2017-10-07T14:14:04.726Z,15
2017-10-07T14:15:04.647Z,17
2017-10-07T14:16:04.717Z,16
2017-10-07T14:17:04.719Z,14
2017-10-07T14:18:04.692Z,11
2017-10-07T14:19:04.720Z,11